createdAt,value
2022-10-10T00:00:24.465Z,2.97
2022-10-10T00:03:02.914Z,3.10
2022-10-10T00:05:35.752Z,3.30
2022-10-10T00:08:07.689Z,3.73
2022-10-10T00:10:37.286Z,3.60
2022-10-10T00:16:13.853Z,3.67
2022-10-10T00:18:53.991Z,3.20
2022-10-10T00:21:24.863Z,3.03
2022-10-10T00:24:06.328Z,3.50
2022-10-10T00:26:40.003Z,3.50
2022-10-10T00:29:08.257Z,3.50
2022-10-10T00:31:45.402Z,3.60
2022-10-10T00:34:16.973Z,4.13
2022-10-10T00:36:52.028Z,3.67
2022-10-10T00:39:20.317Z,3.87
2022-10-10T00:42:01.104Z,3.57
2022-10-10T00:44:31.324Z,3.77
2022-10-10T00:47:01.713Z,3.43
2022-10-10T00:52:17.285Z,3.53
2022-10-10T00:54:45.778Z,3.63
2022-10-10T00:57:19.607Z,3.30
2022-10-10T00:59:48.419Z,3.80
2022-10-10T01:02:16.266Z,3.60
2022-10-10T01:04:50.654Z,3.67
2022-10-10T01:07:40.239Z,3.90
2022-10-10T01:16:17.485Z,3.33
2022-10-10T01:18:55.814Z,3.67
2022-10-10T01:21:42.967Z,3.53
2022-10-10T01:24:44.277Z,4.03
2022-10-10T01:27:31.032Z,3.43
2022-10-10T01:30:14.447Z,3.80
2022-10-10T01:33:03.155Z,3.60
2022-10-10T01:35:42.172Z,4.20
2022-10-10T01:38:23.984Z,3.33
2022-10-10T01:40:56.918Z,4.20
2022-10-10T01:43:26.754Z,3.53
2022-10-10T01:46:16.754Z,3.60
2022-10-10T01:48:50.854Z,3.60
2022-10-10T01:52:13.057Z,3.60
2022-10-10T01:55:04.693Z,3.50
2022-10-10T01:57:44.860Z,3.80
2022-10-10T02:00:13.759Z,3.57
2022-10-10T02:02:52.253Z,3.80
2022-10-10T02:05:26.585Z,3.70
2022-10-10T02:08:04.249Z,3.60
2022-10-10T02:13:32.769Z,3.40
2022-10-10T02:16:04.014Z,3.70
2022-10-10T02:18:35.765Z,3.70
2022-10-10T02:21:06.913Z,3.53
2022-10-10T02:23:35.798Z,3.57
2022-10-10T02:26:05.425Z,3.47
2022-10-10T02:28:39.368Z,3.70
2022-10-10T02:31:11.484Z,3.63
2022-10-10T02:33:45.478Z,3.60
2022-10-10T02:36:14.761Z,3.40
2022-10-10T02:38:43.676Z,3.40
2022-10-10T02:41:15.574Z,3.67
2022-10-10T02:43:43.972Z,4.13
2022-10-10T02:46:14.937Z,3.60
2022-10-10T02:48:44.684Z,3.70
2022-10-10T02:51:14.655Z,3.27
2022-10-10T02:53:42.528Z,3.53
2022-10-10T02:56:10.850Z,3.70
2022-10-10T02:58:38.719Z,3.60
2022-10-10T03:01:06.988Z,3.60
2022-10-10T03:03:34.969Z,3.80
2022-10-10T03:06:05.068Z,3.90
2022-10-10T03:08:33.039Z,3.40
2022-10-10T03:11:02.557Z,4.20
2022-10-10T03:13:30.746Z,3.60
2022-10-10T03:15:58.688Z,3.77
2022-10-10T03:18:26.676Z,3.40
2022-10-10T03:20:56.459Z,3.80
2022-10-10T03:23:26.672Z,4.03
2022-10-10T03:25:54.634Z,4.13
2022-10-10T03:28:22.811Z,3.37
2022-10-10T03:30:50.961Z,3.57
2022-10-10T03:33:19.370Z,4.40
2022-10-10T03:35:47.306Z,3.83
2022-10-10T03:38:17.899Z,3.63
2022-10-10T03:40:47.285Z,3.33
2022-10-10T03:43:15.873Z,3.80
2022-10-10T03:45:44.771Z,3.80
2022-10-10T03:48:12.928Z,3.63
2022-10-10T03:50:41.162Z,3.67
2022-10-10T03:53:10.640Z,3.63
2022-10-10T03:55:40.715Z,3.73
2022-10-10T03:58:10.140Z,3.47
2022-10-10T04:00:38.235Z,3.97
2022-10-10T04:03:06.575Z,3.67
2022-10-10T04:05:35.431Z,3.87
2022-10-10T04:08:03.309Z,4.07
2022-10-10T04:10:31.472Z,3.63
2022-10-10T04:12:59.657Z,3.47
2022-10-10T04:15:28.932Z,3.70
2022-10-10T04:17:56.828Z,4.30
2022-10-10T04:20:24.892Z,3.50
2022-10-10T04:22:54.289Z,3.50
2022-10-10T04:25:22.216Z,4.10
2022-10-10T04:27:50.034Z,3.83
2022-10-10T04:30:18.730Z,3.47
2022-10-10T04:32:48.213Z,3.80
2022-10-10T04:35:16.302Z,4.30
2022-10-10T04:37:45.672Z,4.20
2022-10-10T04:40:13.533Z,3.87
2022-10-10T04:42:41.470Z,4.00
2022-10-10T04:45:10.311Z,4.23
2022-10-10T04:47:38.179Z,4.63
2022-10-10T04:50:08.400Z,3.93
2022-10-10T04:52:36.312Z,3.87
2022-10-10T04:55:04.332Z,3.90
2022-10-10T04:57:32.187Z,4.03
2022-10-10T05:00:00.450Z,3.90
2022-10-10T05:02:28.354Z,3.87
2022-10-10T05:04:56.286Z,3.87
2022-10-10T05:07:25.749Z,4.33
2022-10-10T05:09:53.695Z,3.70
2022-10-10T05:12:21.549Z,4.43
2022-10-10T05:14:51.712Z,3.90
2022-10-10T05:17:19.727Z,4.10
2022-10-10T05:19:56.134Z,4.30
2022-10-10T05:22:25.506Z,3.70
2022-10-10T05:24:53.347Z,4.20
2022-10-10T05:27:21.259Z,3.97
2022-10-10T05:29:49.425Z,4.47
2022-10-10T05:32:17.357Z,4.47
2022-10-10T05:35:02.686Z,4.60
2022-10-10T05:37:34.622Z,4.10
2022-10-10T05:40:02.926Z,4.13
2022-10-10T05:42:31.306Z,4.30
2022-10-10T05:44:59.640Z,4.20
2022-10-10T05:47:28.182Z,4.13
2022-10-10T05:49:56.231Z,4.27
2022-10-10T05:52:24.103Z,4.20
2022-10-10T05:54:53.884Z,4.17
2022-10-10T05:57:21.803Z,4.30
2022-10-10T05:59:49.741Z,4.10
2022-10-10T06:02:17.680Z,4.00
2022-10-10T06:04:45.672Z,3.80
2022-10-10T06:07:13.545Z,4.20
2022-10-10T06:09:41.447Z,4.10
2022-10-10T06:12:10.689Z,4.87
2022-10-10T06:14:38.504Z,4.00
2022-10-10T06:17:07.418Z,3.90
2022-10-10T06:19:35.333Z,4.23
2022-10-10T06:22:03.248Z,4.33
2022-10-10T06:24:31.234Z,3.83
2022-10-10T06:26:59.115Z,4.07
2022-10-10T06:29:28.607Z,4.47
2022-10-10T06:31:56.589Z,4.00
2022-10-10T06:34:24.479Z,4.43
2022-10-10T06:36:52.980Z,3.93
2022-10-10T06:39:20.914Z,4.33
2022-10-10T06:41:50.180Z,4.47
2022-10-10T06:44:18.534Z,4.20
2022-10-10T06:46:47.799Z,4.30
2022-10-10T06:49:16.071Z,4.20
2022-10-10T06:51:44.737Z,4.40
2022-10-10T06:54:25.375Z,4.20
2022-10-10T06:56:53.202Z,3.70
2022-10-10T06:59:21.188Z,3.97
2022-10-10T07:01:50.893Z,4.63
2022-10-10T07:04:18.835Z,4.43
2022-10-10T07:06:46.874Z,4.50
2022-10-10T07:09:15.037Z,4.20
2022-10-10T07:11:45.765Z,4.33
2022-10-10T07:14:14.022Z,4.07
2022-10-10T07:16:55.518Z,4.40
2022-10-10T07:19:45.008Z,4.20
2022-10-10T07:22:19.272Z,3.97
2022-10-10T07:24:51.319Z,4.27
2022-10-10T07:27:20.951Z,4.53
2022-10-10T07:29:49.699Z,4.00
2022-10-10T07:32:21.576Z,4.43
2022-10-10T07:34:51.403Z,4.63
2022-10-10T07:37:23.226Z,4.40
2022-10-10T07:39:53.458Z,5.00
2022-10-10T07:42:23.099Z,4.73
2022-10-10T07:44:53.602Z,4.47
2022-10-10T07:47:23.536Z,4.40
2022-10-10T07:50:14.234Z,4.60
2022-10-10T07:52:48.338Z,4.60
2022-10-10T07:55:28.008Z,4.70
2022-10-10T07:57:56.375Z,4.63
2022-10-10T08:00:24.522Z,4.63
2022-10-10T08:02:54.053Z,4.37
2022-10-10T08:05:25.525Z,4.27
2022-10-10T08:07:56.555Z,4.63
2022-10-10T08:10:24.416Z,4.67
2022-10-10T08:12:52.324Z,4.67
2022-10-10T08:15:20.182Z,4.13
2022-10-10T08:17:50.403Z,4.10
2022-10-10T08:20:24.574Z,4.50
2022-10-10T08:23:06.464Z,4.27
2022-10-10T08:25:40.390Z,4.30
2022-10-10T08:28:09.407Z,4.20
2022-10-10T08:30:42.358Z,4.80
2022-10-10T08:33:11.163Z,4.60
2022-10-10T08:35:44.984Z,4.17
2022-10-10T08:38:18.935Z,4.20
2022-10-10T08:40:52.949Z,4.07
2022-10-10T08:43:26.682Z,4.40
2022-10-10T08:46:01.906Z,4.10
2022-10-10T08:48:34.487Z,4.80
2022-10-10T08:51:07.867Z,4.27
2022-10-10T08:53:42.471Z,4.10
2022-10-10T08:56:28.064Z,3.90
2022-10-10T08:59:08.000Z,3.80
2022-10-10T09:02:17.691Z,3.97
2022-10-10T09:04:29.457Z,3.80
2022-10-10T09:10:10.807Z,4.07
2022-10-10T09:12:45.735Z,3.40
2022-10-10T09:15:22.582Z,3.73
2022-10-10T09:18:07.347Z,3.77
2022-10-10T09:20:54.628Z,4.17
2022-10-10T09:23:33.719Z,4.03
2022-10-10T09:26:11.354Z,3.70
2022-10-10T09:28:46.437Z,4.10
2022-10-10T09:31:29.427Z,3.90
2022-10-10T09:34:02.577Z,4.33
2022-10-10T09:36:34.598Z,4.57
2022-10-10T09:39:05.667Z,3.80
2022-10-10T09:41:44.955Z,4.37
2022-10-10T09:44:16.350Z,3.70
2022-10-10T09:46:44.270Z,3.90
2022-10-10T09:49:18.425Z,4.13
2022-10-10T09:51:47.049Z,3.90
2022-10-10T09:54:19.371Z,3.90
2022-10-10T09:56:52.449Z,4.30
2022-10-10T09:59:41.092Z,3.57
2022-10-10T10:02:21.594Z,4.23
2022-10-10T10:05:08.877Z,3.83
2022-10-10T10:07:55.259Z,3.67
2022-10-10T10:10:27.671Z,3.97
2022-10-10T10:13:00.127Z,4.30
2022-10-10T10:15:30.209Z,3.63
2022-10-10T10:18:16.474Z,4.47
2022-10-10T10:20:46.856Z,4.03
2022-10-10T10:23:26.263Z,4.60
2022-10-10T10:26:02.688Z,4.70
2022-10-10T10:28:34.104Z,4.20
2022-10-10T10:31:03.217Z,4.30
2022-10-10T10:33:43.022Z,4.50
2022-10-10T10:36:26.945Z,4.23
2022-10-10T10:39:01.792Z,4.23
2022-10-10T10:41:36.202Z,4.40
2022-10-10T10:44:26.793Z,4.63
2022-10-10T10:47:04.042Z,4.70
2022-10-10T10:49:44.647Z,4.50
2022-10-10T10:52:39.221Z,4.33
2022-10-10T10:55:32.916Z,4.60
2022-10-10T11:01:58.341Z,4.53
2022-10-10T11:05:18.961Z,5.53
2022-10-10T11:08:00.066Z,4.47
2022-10-10T11:10:39.927Z,4.47
2022-10-10T11:13:17.308Z,4.90
2022-10-10T11:16:10.942Z,4.97
2022-10-10T11:18:48.587Z,4.40
2022-10-10T11:21:21.904Z,4.50
2022-10-10T11:23:57.270Z,4.83
2022-10-10T11:26:31.013Z,4.83
2022-10-10T11:29:09.732Z,4.70
2022-10-10T11:31:44.770Z,5.70
2022-10-10T11:34:26.327Z,5.80
2022-10-10T11:37:05.819Z,5.13
2022-10-10T11:39:47.332Z,5.00
2022-10-10T11:42:21.089Z,5.93
2022-10-10T11:45:05.880Z,4.67
2022-10-10T11:47:40.954Z,5.50
2022-10-10T11:50:18.211Z,4.97
2022-10-10T11:52:53.200Z,5.00
2022-10-10T11:55:32.332Z,5.10
2022-10-10T11:58:32.318Z,5.40
2022-10-10T12:01:07.636Z,5.43
2022-10-10T12:03:35.504Z,5.47
2022-10-10T12:06:13.056Z,5.07
2022-10-10T12:08:47.525Z,5.33
2022-10-10T12:11:21.350Z,5.30
2022-10-10T12:13:54.677Z,4.90
2022-10-10T12:16:30.735Z,5.53
2022-10-10T12:19:09.212Z,5.43
2022-10-10T12:21:58.321Z,5.40
2022-10-10T12:24:29.489Z,5.60
2022-10-10T12:27:43.426Z,4.80
2022-10-10T12:30:26.434Z,5.53
2022-10-10T12:33:00.294Z,4.93
2022-10-10T12:35:39.450Z,5.37
2022-10-10T12:38:25.085Z,5.80
2022-10-10T12:41:16.556Z,4.60
2022-10-10T12:43:50.271Z,5.20
2022-10-10T12:46:28.667Z,5.07
2022-10-10T12:49:03.048Z,5.10
2022-10-10T12:51:35.365Z,5.13
2022-10-10T12:54:08.700Z,5.17
2022-10-10T12:56:43.211Z,5.17
2022-10-10T12:59:23.062Z,4.33
2022-10-10T13:01:58.779Z,4.10
2022-10-10T13:04:28.379Z,4.33
2022-10-10T13:06:59.368Z,4.13
2022-10-10T13:09:37.464Z,3.77
2022-10-10T13:12:08.042Z,2.10
2022-10-10T13:14:43.568Z,1.50
2022-10-10T13:17:46.933Z,1.20
2022-10-10T13:20:31.207Z,0.80
2022-10-10T13:23:06.550Z,1.00
2022-10-10T13:25:40.147Z,1.10
2022-10-10T13:28:18.516Z,1.23
2022-10-10T13:30:50.221Z,1.03
2022-10-10T13:33:20.903Z,1.13
2022-10-10T13:35:53.457Z,1.07
2022-10-10T13:38:29.289Z,1.00
2022-10-10T13:40:59.304Z,0.93
2022-10-10T13:43:29.158Z,0.90
2022-10-10T13:45:59.075Z,0.80
2022-10-10T13:48:33.057Z,0.97
2022-10-10T13:51:09.105Z,0.97
2022-10-10T13:54:01.433Z,1.50
2022-10-10T13:56:41.622Z,1.63
2022-10-10T13:59:15.615Z,1.13
2022-10-10T14:01:49.300Z,1.60
2022-10-10T14:04:25.473Z,1.70
2022-10-10T14:07:17.436Z,1.60
2022-10-10T14:09:53.523Z,1.50
2022-10-10T14:12:42.680Z,1.67
2022-10-10T14:15:34.969Z,1.43
2022-10-10T14:18:03.172Z,1.90
2022-10-10T14:20:31.102Z,2.13
2022-10-10T14:23:01.435Z,1.63
2022-10-10T14:28:20.561Z,1.77
2022-10-10T14:30:53.169Z,1.47
2022-10-10T14:33:41.813Z,1.90
2022-10-10T14:36:12.332Z,1.30
2022-10-10T14:38:41.569Z,1.93
2022-10-10T14:41:15.191Z,1.80
2022-10-10T14:43:46.027Z,1.80
2022-10-10T14:46:21.650Z,2.10
2022-10-10T14:48:51.913Z,2.47
2022-10-10T14:51:33.964Z,1.60
2022-10-10T14:54:13.934Z,2.70
2022-10-10T14:57:07.515Z,2.10
2022-10-10T14:59:46.347Z,2.00
2022-10-10T15:02:16.578Z,2.20
2022-10-10T15:04:44.449Z,2.40
2022-10-10T15:07:18.785Z,1.83
2022-10-10T15:10:31.988Z,2.20
2022-10-10T15:12:42.755Z,2.10
2022-10-10T15:15:29.576Z,1.77
2022-10-10T15:17:59.645Z,2.10
2022-10-10T15:20:43.253Z,2.10
2022-10-10T15:23:15.299Z,2.10
2022-10-10T15:25:56.414Z,1.93
2022-10-10T15:28:26.541Z,1.63
2022-10-10T15:31:00.555Z,2.07
2022-10-10T15:36:18.959Z,1.80
2022-10-10T15:38:49.404Z,1.70
2022-10-10T15:41:19.906Z,2.07
2022-10-10T15:43:54.619Z,2.07
2022-10-10T15:46:32.642Z,1.80
2022-10-10T15:49:03.494Z,2.00
2022-10-10T15:51:38.773Z,2.23
2022-10-10T15:54:08.334Z,1.63
2022-10-10T15:56:42.141Z,1.93
2022-10-10T15:59:13.339Z,1.33
2022-10-10T16:01:48.664Z,1.70
2022-10-10T16:04:19.357Z,1.60
2022-10-10T16:06:54.389Z,2.10
2022-10-10T16:09:28.917Z,2.07
2022-10-10T16:11:59.411Z,1.77
2022-10-10T16:14:27.538Z,1.27
2022-10-10T16:17:00.721Z,1.50
2022-10-10T16:19:28.712Z,1.80
2022-10-10T16:22:01.679Z,1.67
2022-10-10T16:24:30.618Z,1.40
2022-10-10T16:27:03.358Z,1.23
2022-10-10T16:29:31.556Z,1.57
2022-10-10T16:34:48.071Z,1.83
2022-10-10T16:37:26.772Z,1.80
2022-10-10T16:40:12.104Z,1.97
2022-10-10T16:42:42.161Z,1.70
2022-10-10T16:45:15.774Z,2.03
2022-10-10T16:47:45.157Z,2.00
2022-10-10T16:50:39.476Z,2.00
2022-10-10T16:53:38.804Z,1.87
2022-10-10T16:56:19.599Z,1.47
2022-10-10T17:02:03.487Z,1.97
2022-10-10T17:04:50.570Z,1.97
2022-10-10T17:07:19.123Z,2.13
2022-10-10T17:09:48.369Z,2.20
2022-10-10T17:12:21.719Z,2.40
2022-10-10T17:17:52.469Z,2.20
2022-10-10T17:20:24.500Z,1.83
2022-10-10T17:22:59.601Z,1.80
2022-10-10T17:25:34.194Z,1.57
2022-10-10T17:28:03.320Z,1.70
2022-10-10T17:30:33.348Z,1.97
2022-10-10T17:33:04.324Z,1.50
2022-10-10T17:35:35.894Z,1.60
2022-10-10T17:38:39.781Z,2.27
2022-10-10T17:41:20.271Z,2.03
2022-10-10T17:47:11.900Z,1.80
2022-10-10T17:55:53.516Z,5.37
2022-10-10T17:59:07.565Z,3.40
2022-10-10T18:01:42.406Z,2.23
2022-10-10T18:04:16.142Z,2.20
2022-10-10T18:06:49.465Z,1.80
2022-10-10T18:09:27.613Z,1.63
2022-10-10T18:11:56.160Z,1.97
2022-10-10T18:17:22.365Z,2.87
2022-10-10T18:22:39.032Z,2.30
2022-10-10T18:25:13.924Z,2.10
2022-10-10T18:30:27.631Z,2.00
2022-10-10T18:32:55.870Z,2.17
2022-10-10T18:35:27.626Z,2.30
2022-10-10T18:38:36.567Z,2.00
2022-10-10T18:41:24.089Z,2.00
2022-10-10T18:44:00.190Z,2.23
2022-10-10T18:46:29.416Z,2.47
2022-10-10T18:48:57.490Z,2.40
2022-10-10T18:51:29.406Z,2.70
2022-10-10T18:54:01.847Z,2.33
2022-10-10T18:56:33.298Z,3.07
2022-10-10T18:59:03.202Z,2.90
2022-10-10T19:01:35.129Z,2.50
2022-10-10T19:04:04.061Z,2.30
2022-10-10T19:06:32.018Z,2.47
2022-10-10T19:09:01.656Z,2.70
2022-10-10T19:11:33.499Z,3.00
2022-10-10T19:14:03.421Z,2.50
2022-10-10T19:16:31.912Z,2.47
2022-10-10T19:19:00.502Z,2.20
2022-10-10T19:21:29.831Z,2.67
2022-10-10T19:23:59.784Z,2.77
2022-10-10T19:26:33.307Z,2.03
2022-10-10T19:29:06.606Z,2.07
2022-10-10T19:31:43.540Z,2.30
2022-10-10T19:34:16.078Z,2.37
2022-10-10T19:36:44.925Z,2.60
2022-10-10T19:39:12.915Z,2.30
2022-10-10T19:41:41.066Z,2.57
2022-10-10T19:44:11.334Z,2.40
2022-10-10T19:46:44.115Z,2.73
2022-10-10T19:49:12.797Z,2.30
2022-10-10T19:51:40.738Z,2.53
2022-10-10T19:54:08.567Z,2.60
2022-10-10T19:56:36.719Z,2.80
2022-10-10T19:59:06.037Z,2.33
2022-10-10T20:01:35.544Z,2.70
2022-10-10T20:04:03.823Z,2.73
2022-10-10T20:06:40.317Z,2.30
2022-10-10T20:09:11.007Z,2.27
2022-10-10T20:11:39.537Z,2.73
2022-10-10T20:14:07.545Z,2.67
2022-10-10T20:16:36.836Z,3.03
2022-10-10T20:19:05.060Z,2.30
2022-10-10T20:21:34.956Z,2.67
2022-10-10T20:24:14.786Z,2.67
2022-10-10T20:26:51.884Z,2.10
2022-10-10T20:29:29.169Z,2.53
2022-10-10T20:31:59.292Z,2.40
2022-10-10T20:34:28.777Z,2.33
2022-10-10T20:36:57.097Z,1.87
2022-10-10T20:39:27.298Z,2.30
2022-10-10T20:41:55.132Z,1.77
2022-10-10T20:44:22.992Z,2.30
2022-10-10T20:46:50.883Z,2.23
2022-10-10T20:52:17.429Z,2.53
2022-10-10T20:54:45.252Z,2.87
2022-10-10T20:57:13.103Z,2.07
2022-10-10T20:59:40.961Z,3.23
2022-10-10T21:02:11.108Z,2.23
2022-10-10T21:04:40.645Z,3.23
2022-10-10T21:07:28.232Z,3.07
2022-10-10T21:10:03.539Z,2.60
2022-10-10T21:12:31.510Z,2.20
2022-10-10T21:15:02.369Z,2.70
2022-10-10T21:17:38.379Z,2.40
2022-10-10T21:20:21.324Z,2.40
2022-10-10T21:22:52.097Z,2.20
2022-10-10T21:25:19.980Z,2.43
2022-10-10T21:27:49.976Z,2.07
2022-10-10T21:30:18.037Z,3.00
2022-10-10T21:32:46.233Z,2.30
2022-10-10T21:35:15.589Z,2.90
2022-10-10T21:37:45.481Z,2.33
2022-10-10T21:40:14.373Z,2.30
2022-10-10T21:42:43.713Z,2.13
2022-10-10T21:45:14.872Z,2.13
2022-10-10T21:47:45.072Z,2.13
2022-10-10T21:50:14.877Z,2.23
2022-10-10T21:52:45.016Z,3.00
2022-10-10T21:55:12.932Z,2.40
2022-10-10T21:57:41.166Z,2.37
2022-10-10T22:00:13.718Z,3.20
2022-10-10T22:02:43.128Z,2.67
2022-10-10T22:05:12.323Z,2.80
2022-10-10T22:07:42.492Z,2.63
2022-10-10T22:10:15.290Z,2.10
2022-10-10T22:12:45.624Z,2.73
2022-10-10T22:15:14.634Z,2.40
2022-10-10T22:17:47.566Z,2.53
2022-10-10T22:20:15.420Z,1.77
2022-10-10T22:22:46.027Z,2.30
2022-10-10T22:25:19.156Z,2.30
2022-10-10T22:27:47.023Z,2.23
2022-10-10T22:30:15.205Z,2.30
2022-10-10T22:32:44.573Z,2.50
2022-10-10T22:35:13.015Z,2.17
2022-10-10T22:37:40.885Z,2.43
2022-10-10T22:40:09.906Z,2.47
2022-10-10T22:42:39.951Z,2.17
2022-10-10T22:45:08.905Z,2.17
2022-10-10T22:47:36.869Z,2.63
2022-10-10T22:50:06.128Z,2.20
2022-10-10T22:52:34.031Z,2.17
2022-10-10T22:55:13.286Z,1.90
2022-10-10T22:57:47.273Z,2.30
2022-10-10T23:00:16.718Z,1.87
2022-10-10T23:02:45.013Z,2.00
2022-10-10T23:05:13.176Z,2.80
2022-10-10T23:07:41.087Z,2.03
2022-10-10T23:10:10.163Z,2.13
2022-10-10T23:12:38.425Z,2.10
2022-10-10T23:15:08.691Z,1.53
2022-10-10T23:17:37.077Z,2.10
2022-10-10T23:20:13.458Z,1.90
2022-10-10T23:22:41.837Z,2.07
2022-10-10T23:25:09.928Z,2.70
2022-10-10T23:27:38.123Z,1.90
2022-10-10T23:30:08.590Z,2.17
2022-10-10T23:32:36.437Z,2.80
2022-10-10T23:35:04.586Z,1.93
2022-10-10T23:37:32.507Z,2.03
2022-10-10T23:40:00.348Z,1.90
2022-10-10T23:42:28.233Z,2.37
2022-10-10T23:44:56.120Z,2.23
2022-10-10T23:47:25.479Z,1.80
2022-10-10T23:49:53.361Z,2.40
2022-10-10T23:52:21.283Z,2.10
2022-10-10T23:54:49.197Z,2.00
2022-10-10T23:57:17.116Z,2.00
2022-10-10T23:59:45.082Z,2.07
